Star Fortune — HOCT — position and weather

sailwx.info

Track history (hours):
 
Tides and Currents Weather Stations Pressure Air Temp Water Temp Dewpoint Dewpoint Depression Visibility Wind Speed Wind Dir Waves Ship Positions

Star Fortune

Last reported at 2017-Oct-13 17:20 UTC. Time now 2017-Oct-22 23:04 UTC.
Position N 29°22' W 094°48'.
Warning: this ship's position is 9 days out of date.

Length 289 m; draft 7.7 m.

Type: Cargo ship. MMSI: 353223000.

Date/timePositionNaut miles runAvg speedWind from/ knotsBaromVisibWave heightAir tempDewpointWater temp
2017-Oct-13 17:20N 29°22' W 094°48'411.1
2017-Oct-13 17:00N 29°25' W 094°50'510.4
2017-Oct-13 16:30N 29°30' W 094°52'5 9.3
2017-Oct-13 16:00N 29°34' W 094°55'5 9.7
2017-Oct-13 15:30N 29°38' W 094°58'4 8.6
2017-Oct-13 15:00N 29°42' W 095°00'3 6.2
2017-Oct-13 14:30N 29°44' W 095°03'3 5.5
2017-Oct-13 13:59N 29°45' W 095°06'2 4.1
2017-Oct-13 13:31N 29°44' W 095°08'0 0.3
2017-Oct-13 13:00N 29°44' W 095°08'  
Track history (hours):
 
Tides and Currents Weather Stations Pressure Air Temp Water Temp Dewpoint Dewpoint Depression Visibility Wind Speed Wind Dir Waves Ship Positions

Star Fortune

Last reported at 2017-Oct-13 17:20 UTC. Time now 2017-Oct-22 23:04 UTC.
Position N 29°22' W 094°48'.
Warning: this ship's position is 9 days out of date.

Length 289 m; draft 7.7 m.

Type: Cargo ship. MMSI: 353223000.

Date/timePositionNaut miles runAvg speedWind from/ knotsBaromVisibWave heightAir tempDewpointWater temp
2017-Oct-13 17:20N 29°22' W 094°48'411.1
2017-Oct-13 17:00N 29°25' W 094°50'510.4
2017-Oct-13 16:30N 29°30' W 094°52'5 9.3
2017-Oct-13 16:00N 29°34' W 094°55'5 9.7
2017-Oct-13 15:30N 29°38' W 094°58'4 8.6
2017-Oct-13 15:00N 29°42' W 095°00'3 6.2
2017-Oct-13 14:30N 29°44' W 095°03'3 5.5
2017-Oct-13 13:59N 29°45' W 095°06'2 4.1
2017-Oct-13 13:31N 29°44' W 095°08'0 0.3
2017-Oct-13 13:00N 29°44' W 095°08'  

Dump ship's entire track history